Time;durP1;ratioP1;P1;durP2;ratioP2;P2;SDS_P1;SDS_P2;PMS_P1;PMS_P2;Temp;Humidity;BMP_temperature;BMP_pressure;BME280_temperature;BME280_humidity;BME280_pressure;Samples;Min_cycle;Max_cycle;Signal;HPM_P1;HPM_P2
2022/06/10 00:01:20;;;;;;;3.58;1.00;;;;;;;23.96;46.40;100432.84;5011089;28;20050;-81
2022/06/10 00:03:49;;;;;;;2.42;0.70;;;;;;;23.85;46.86;100449.97;5008251;28;20100;-82
2022/06/10 00:06:17;;;;;;;3.15;0.60;;;;;;;23.78;47.07;100458.06;5009162;28;20048;-80
2022/06/10 00:08:48;;;;;;;2.70;0.90;;;;;;;23.76;47.05;100457.22;5009016;28;20112;-80
2022/06/10 00:11:17;;;;;;;5.68;0.70;;;;;;;23.73;48.40;100478.44;5009471;28;20563;-78
2022/06/10 00:13:49;;;;;;;2.17;0.65;;;;;;;23.68;51.01;100479.47;4997664;28;20045;-80
2022/06/10 00:16:20;;;;;;;1.60;0.70;;;;;;;23.53;50.92;100478.16;4993166;28;20042;-81
2022/06/10 00:18:49;;;;;;;1.45;0.80;;;;;;;23.41;54.27;100474.94;4996530;28;20290;-80
2022/06/10 00:21:20;;;;;;;1.40;0.63;;;;;;;23.20;54.90;100479.03;4991673;28;20047;-81
2022/06/10 00:23:48;;;;;;;1.15;0.60;;;;;;;23.08;57.41;100478.50;5004274;28;20074;-79
2022/06/10 00:26:17;;;;;;;3.63;0.63;;;;;;;23.02;58.62;100466.34;5000437;28;20092;-83
2022/06/10 00:28:48;;;;;;;3.40;0.82;;;;;;;22.97;61.51;100455.00;5000086;28;20052;-84
2022/06/10 00:31:18;;;;;;;2.83;0.73;;;;;;;22.87;60.36;100442.97;5011079;28;20497;-83
2022/06/10 00:33:46;;;;;;;3.10;0.95;;;;;;;22.82;60.43;100451.00;5014074;28;20045;-81
2022/06/10 00:36:15;;;;;;;2.05;0.90;;;;;;;22.82;62.69;100423.75;5015295;28;20558;-84
2022/06/10 00:38:44;;;;;;;2.90;0.82;;;;;;;22.83;62.99;100426.34;5012218;28;20038;-87
2022/06/10 00:41:14;;;;;;;0.70;0.50;;;;;;;22.81;63.86;100412.31;5008539;28;20048;-82
2022/06/10 00:43:43;;;;;;;1.95;0.80;;;;;;;22.82;64.25;100397.38;5013029;28;20045;-85
2022/06/10 00:46:28;;;;;;;1.02;0.60;;;;;;;22.77;63.26;100390.44;5009427;28;20447;-85
2022/06/10 00:49:09;;;;;;;2.75;0.70;;;;;;;22.75;64.44;100402.81;5021419;28;20057;-86
2022/06/10 00:51:47;;;;;;;2.10;0.77;;;;;;;22.63;62.63;100384.69;5018125;28;20049;-85
2022/06/10 00:54:20;;;;;;;3.55;0.85;;;;;;;22.56;63.70;100391.00;5001669;28;20105;-85
2022/06/10 00:56:52;;;;;;;0.75;0.60;;;;;;;22.52;65.02;100373.53;4998118;28;20051;-86
2022/06/10 00:59:24;;;;;;;3.15;0.80;;;;;;;22.49;63.80;100384.16;4998332;28;20054;-85
2022/06/10 01:01:58;;;;;;;1.80;0.75;;;;;;;22.47;64.48;100371.03;4997034;28;20046;-84
2022/06/10 01:04:27;;;;;;;1.88;0.52;;;;;;;22.47;65.16;100362.22;4980583;28;20042;-81
2022/06/10 01:06:56;;;;;;;0.70;0.60;;;;;;;22.45;65.66;100357.00;4995746;28;20046;-83
2022/06/10 01:09:26;;;;;;;2.53;0.73;;;;;;;22.45;65.85;100374.56;4986678;28;20054;-86
2022/06/10 01:12:21;;;;;;;1.23;0.70;;;;;;;22.43;66.38;100381.69;4992904;28;20497;-85
2022/06/10 01:15:05;;;;;;;1.77;0.77;;;;;;;22.40;67.57;100376.47;4995435;28;20125;-84
2022/06/10 01:17:51;;;;;;;2.75;0.90;;;;;;;22.32;66.36;100377.53;4991216;28;20046;-85
2022/06/10 01:20:32;;;;;;;1.50;0.70;;;;;;;22.29;66.79;100379.41;5001112;28;20075;-89
2022/06/10 01:23:55;;;;;;;5.60;1.65;;;;;;;22.24;67.69;100381.25;4995145;28;20108;-83
2022/06/10 01:30:11;;;;;;;2.22;0.90;;;;;;;22.11;69.36;100436.00;4934162;29;20465;-86
2022/06/10 01:32:51;;;;;;;4.03;1.05;;;;;;;22.05;70.56;100444.03;4985973;28;20559;-85
2022/06/10 01:35:27;;;;;;;1.67;0.80;;;;;;;21.96;70.88;100438.06;4992026;28;20053;-81
2022/06/10 01:38:03;;;;;;;2.97;0.95;;;;;;;21.88;70.77;100426.84;4984471;28;20114;-84
2022/06/10 01:40:40;;;;;;;3.42;1.10;;;;;;;21.81;72.18;100435.81;4994200;28;20089;-87
2022/06/10 01:43:16;;;;;;;4.15;1.33;;;;;;;21.73;73.88;100432.47;4985262;28;20102;-86
2022/06/10 01:45:53;;;;;;;5.65;1.42;;;;;;;21.65;75.44;100484.44;4976652;28;20043;-87
2022/06/10 01:48:34;;;;;;;3.20;1.23;;;;;;;21.57;75.95;100508.25;4993178;28;20114;-87
2022/06/10 01:51:10;;;;;;;3.15;1.15;;;;;;;21.49;78.15;100518.94;4993369;28;20148;-84
2022/06/10 01:53:43;;;;;;;3.25;1.20;;;;;;;21.38;78.95;100541.94;4981663;28;20054;-86
2022/06/10 01:56:18;;;;;;;2.15;1.33;;;;;;;21.25;79.67;100550.94;4972444;28;20058;-82
2022/06/10 01:58:51;;;;;;;3.45;1.40;;;;;;;21.10;79.78;100565.25;4983077;28;20054;-84
2022/06/10 02:01:26;;;;;;;4.60;2.00;;;;;;;20.95;80.62;100547.94;4994813;28;20053;-84
2022/06/10 02:04:00;;;;;;;6.72;2.88;;;;;;;20.83;82.21;100550.78;4986877;28;20042;-82
2022/06/10 02:06:34;;;;;;;3.08;0.98;;;;;;;20.68;83.73;100568.56;4989900;28;20054;-80
2022/06/10 02:09:07;;;;;;;2.85;1.10;;;;;;;20.54;86.26;100561.72;4990370;28;20045;-86
2022/06/10 02:11:39;;;;;;;2.80;1.00;;;;;;;20.43;87.42;100553.97;4993556;28;20456;-80
2022/06/10 02:14:12;;;;;;;2.67;1.00;;;;;;;20.33;88.55;100576.03;4991075;28;20046;-82
2022/06/10 02:16:45;;;;;;;5.88;1.40;;;;;;;20.21;89.11;100567.41;4992804;28;20050;-79
2022/06/10 02:19:22;;;;;;;2.05;0.70;;;;;;;20.09;90.77;100570.22;4991129;28;20662;-78
2022/06/10 02:21:54;;;;;;;1.60;0.88;;;;;;;19.87;93.07;100572.22;4988018;28;20051;-77
2022/06/10 02:24:25;;;;;;;2.15;1.08;;;;;;;19.89;95.39;100586.22;4991446;28;20058;-77
2022/06/10 02:26:57;;;;;;;1.90;0.73;;;;;;;19.83;96.84;100587.13;4985187;28;20054;-77
2022/06/10 02:29:31;;;;;;;6.05;1.08;;;;;;;19.78;98.34;100607.31;4990325;28;20046;-76
2022/06/10 02:32:02;;;;;;;4.55;0.80;;;;;;;19.71;100.00;100605.66;4985491;28;20047;-75
2022/06/10 02:34:32;;;;;;;2.50;0.70;;;;;;;19.65;100.00;100608.28;4985778;28;20136;-76
2022/06/10 02:37:09;;;;;;;2.42;0.98;;;;;;;19.55;100.00;100601.41;5002488;28;20046;-76
2022/06/10 02:39:48;;;;;;;1.27;0.60;;;;;;;19.52;100.00;100632.94;4991210;28;20054;-74
2022/06/10 02:42:22;;;;;;;2.53;0.88;;;;;;;19.51;100.00;100646.94;4993802;28;20138;-74
2022/06/10 02:44:56;;;;;;;2.10;0.70;;;;;;;19.44;100.00;100631.22;4982823;28;20050;-74
2022/06/10 02:47:30;;;;;;;2.05;0.88;;;;;;;19.37;100.00;100640.03;4982847;28;20058;-74
2022/06/10 02:50:00;;;;;;;1.38;0.70;;;;;;;19.30;100.00;100629.63;4982078;28;20054;-75
2022/06/10 02:52:34;;;;;;;1.40;0.63;;;;;;;19.13;100.00;100625.41;4977631;28;20105;-77
2022/06/10 02:55:03;;;;;;;2.70;0.65;;;;;;;19.05;100.00;100603.59;4991059;28;20042;-77
2022/06/10 03:03:20;;;;;;;2.58;0.73;;;;;;;18.77;100.00;100652.72;4967945;28;20295;-77
2022/06/10 03:06:00;;;;;;;2.20;0.90;;;;;;;18.71;100.00;100650.09;4988636;28;20480;-79
2022/06/10 03:08:37;;;;;;;3.13;1.10;;;;;;;18.65;100.00;100650.16;4994200;28;20071;-73
2022/06/10 03:11:24;;;;;;;2.80;0.80;;;;;;;18.58;100.00;100647.56;4979582;28;20488;-76
2022/06/10 03:14:03;;;;;;;1.75;0.70;;;;;;;18.48;100.00;100631.88;4992945;28;20100;-74
2022/06/10 03:16:46;;;;;;;2.50;0.90;;;;;;;18.45;100.00;100645.88;4988635;28;20065;-73
2022/06/10 03:19:30;;;;;;;2.67;0.80;;;;;;;18.36;100.00;100652.00;4992603;28;20100;-74
2022/06/10 03:22:10;;;;;;;1.92;0.80;;;;;;;18.28;100.00;100647.69;4989317;28;20086;-72
2022/06/10 03:24:58;;;;;;;1.63;0.60;;;;;;;18.20;100.00;100653.81;4980431;28;20575;-74
2022/06/10 03:27:35;;;;;;;3.53;0.85;;;;;;;18.23;100.00;100650.31;4988190;28;20073;-75
2022/06/10 03:30:08;;;;;;;1.67;1.02;;;;;;;18.25;100.00;100659.03;4988894;28;20058;-74
2022/06/10 03:32:41;;;;;;;1.77;0.60;;;;;;;18.30;100.00;100641.59;4989022;28;20069;-73
2022/06/10 03:35:15;;;;;;;2.15;0.65;;;;;;;18.30;100.00;100635.44;4987304;28;20097;-75
2022/06/10 03:37:46;;;;;;;1.40;0.60;;;;;;;18.25;100.00;100637.22;4983187;28;20046;-76
2022/06/10 03:40:19;;;;;;;2.45;0.73;;;;;;;18.21;100.00;100658.19;4990186;28;21580;-75
2022/06/10 03:42:50;;;;;;;2.33;1.10;;;;;;;18.18;100.00;100658.19;4990963;28;20126;-75
2022/06/10 03:45:24;;;;;;;1.60;1.10;;;;;;;18.17;100.00;100668.69;4986647;28;20050;-76
2022/06/10 03:47:53;;;;;;;2.85;1.20;;;;;;;18.18;100.00;100678.28;4985516;28;20046;-75
2022/06/10 03:50:26;;;;;;;1.95;0.60;;;;;;;18.13;100.00;100670.44;4983125;28;20145;-76
2022/06/10 03:52:57;;;;;;;1.05;0.60;;;;;;;18.13;100.00;100682.66;4989074;28;20109;-75
2022/06/10 03:55:25;;;;;;;1.63;0.77;;;;;;;18.13;100.00;100670.44;4992479;28;20050;-77
2022/06/10 03:57:54;;;;;;;1.23;0.68;;;;;;;18.15;100.00;100683.53;4981682;28;20481;-81
2022/06/10 04:00:26;;;;;;;1.45;0.50;;;;;;;18.14;100.00;100680.03;4983516;28;20092;-74
2022/06/10 04:02:55;;;;;;;1.02;0.65;;;;;;;18.13;100.00;100665.19;4985819;28;20114;-77
2022/06/10 04:05:23;;;;;;;3.85;0.70;;;;;;;18.13;100.00;100667.81;4980336;28;20508;-76
2022/06/10 04:07:52;;;;;;;2.35;0.52;;;;;;;18.14;100.00;100674.81;4990468;28;20097;-76
2022/06/10 04:10:25;;;;;;;1.35;0.50;;;;;;;18.10;100.00;100674.81;4995271;28;20136;-75
2022/06/10 04:12:53;;;;;;;1.55;0.80;;;;;;;18.08;100.00;100677.44;4982837;28;20150;-75
2022/06/10 04:15:24;;;;;;;0.82;0.50;;;;;;;18.05;100.00;100671.31;4988566;28;20496;-76
2022/06/10 04:17:52;;;;;;;0.98;0.47;;;;;;;18.03;100.00;100671.34;4989301;28;20043;-76
2022/06/10 04:20:24;;;;;;;2.22;0.57;;;;;;;18.00;100.00;100661.75;4990232;28;20562;-76
2022/06/10 04:22:53;;;;;;;1.27;0.60;;;;;;;17.98;100.00;100660.00;4990864;28;20050;-76
2022/06/10 04:25:23;;;;;;;1.08;0.40;;;;;;;17.97;100.00;100661.75;4991216;28;20045;-76
2022/06/10 04:27:52;;;;;;;1.60;0.60;;;;;;;17.97;100.00;100659.13;4988091;28;20416;-76
2022/06/10 04:30:26;;;;;;;0.60;0.38;;;;;;;17.93;100.00;100667.84;4986775;28;20058;-81
2022/06/10 04:32:55;;;;;;;1.85;0.65;;;;;;;17.93;100.00;100667.00;4989332;28;20484;-77
2022/06/10 04:35:25;;;;;;;0.73;0.45;;;;;;;17.92;100.00;100675.72;4985083;28;20046;-76
2022/06/10 04:37:54;;;;;;;0.93;0.40;;;;;;;17.90;100.00;100674.88;4990491;28;20047;-78
2022/06/10 04:40:27;;;;;;;0.90;0.60;;;;;;;17.90;100.00;100687.94;4987775;28;20113;-75
2022/06/10 04:42:55;;;;;;;;;;;;;;;17.90;100.00;100694.06;4988099;28;20555;-76
2022/06/10 04:45:25;;;;;;;2.70;0.52;;;;;;;17.87;100.00;100699.28;4985845;28;20088;-79
2022/06/10 04:47:54;;;;;;;2.72;0.90;;;;;;;17.87;100.00;100706.28;4985606;28;20050;-77
2022/06/10 04:50:25;;;;;;;1.25;0.30;;;;;;;17.91;100.00;100697.53;4978541;28;20065;-76
2022/06/10 04:52:55;;;;;;;2.65;0.80;;;;;;;17.92;100.00;100707.16;4963877;28;20047;-77
2022/06/10 04:55:27;;;;;;;2.53;0.80;;;;;;;17.88;100.00;100700.16;4965293;28;20046;-75
2022/06/10 04:57:56;;;;;;;2.00;0.80;;;;;;;17.86;100.00;100712.38;4970829;28;20512;-80
2022/06/10 05:00:26;;;;;;;2.55;0.63;;;;;;;17.88;100.00;100721.97;4973616;28;20124;-76
2022/06/10 05:02:55;;;;;;;2.80;1.20;;;;;;;17.89;100.00;100730.69;4971803;28;20050;-76
2022/06/10 05:05:24;;;;;;;2.38;0.90;;;;;;;17.92;100.00;100746.41;4962379;28;20057;-76
2022/06/10 05:07:52;;;;;;;2.38;0.93;;;;;;;17.94;100.00;100747.28;4954020;28;20047;-76
2022/06/10 05:10:21;;;;;;;2.83;1.33;;;;;;;17.96;100.00;100763.88;4958152;28;20493;-76
2022/06/10 05:12:51;;;;;;;2.58;1.00;;;;;;;17.97;100.00;100750.75;4964872;28;20055;-77
2022/06/10 05:15:21;;;;;;;1.65;0.90;;;;;;;18.01;100.00;100754.25;4969524;28;20050;-77
2022/06/10 05:17:50;;;;;;;1.17;0.75;;;;;;;18.06;100.00;100756.88;4957069;28;20059;-75
2022/06/10 05:20:22;;;;;;;1.67;0.93;;;;;;;18.07;100.00;100758.59;4972424;28;20109;-74
2022/06/10 05:22:51;;;;;;;1.10;0.70;;;;;;;18.08;100.00;100761.22;4960122;28;20050;-76
2022/06/10 05:25:20;;;;;;;0.98;0.80;;;;;;;18.10;100.00;100775.19;4963738;28;20490;-76
2022/06/10 05:27:50;;;;;;;0.82;0.70;;;;;;;18.12;100.00;100783.91;4965824;28;20099;-77
2022/06/10 05:30:23;;;;;;;1.25;0.70;;;;;;;18.12;100.00;100778.69;4969199;28;20571;-76
2022/06/10 05:32:52;;;;;;;1.30;0.80;;;;;;;18.14;100.00;100771.69;4968692;28;20070;-76
2022/06/10 05:35:20;;;;;;;1.95;0.77;;;;;;;18.14;100.00;100774.31;4978282;28;20563;-76
2022/06/10 05:37:49;;;;;;;1.75;0.57;;;;;;;18.14;100.00;100787.41;4967000;28;20520;-76
2022/06/10 05:40:18;;;;;;;3.08;0.70;;;;;;;18.17;100.00;100778.69;4979674;28;20101;-76
2022/06/10 05:42:47;;;;;;;2.33;1.40;;;;;;;18.18;100.00;100783.88;4965226;28;20509;-75
2022/06/10 05:45:19;;;;;;;3.33;1.00;;;;;;;18.17;100.00;100784.78;4978400;28;20114;-76
2022/06/10 05:47:49;;;;;;;3.05;0.63;;;;;;;18.18;100.00;100788.25;4968878;28;20057;-76
2022/06/10 05:50:20;;;;;;;3.65;0.90;;;;;;;18.15;100.00;100798.75;4985460;28;20054;-76
2022/06/10 05:52:48;;;;;;;1.05;0.60;;;;;;;18.13;100.00;100814.47;4984626;28;20088;-75
2022/06/10 05:55:18;;;;;;;2.70;1.25;;;;;;;18.11;100.00;100813.59;4985396;28;20484;-79
2022/06/10 05:57:48;;;;;;;1.63;0.85;;;;;;;18.11;100.00;100802.25;4991675;28;20065;-78
2022/06/10 06:00:21;;;;;;;1.63;0.90;;;;;;;18.04;100.00;100793.50;4982601;28;20061;-80
2022/06/10 06:02:49;;;;;;;3.47;1.38;;;;;;;18.02;100.00;100797.00;4983951;28;20054;-79
2022/06/10 06:05:20;;;;;;;1.63;0.75;;;;;;;18.01;100.00;100796.16;4989064;28;20042;-80
2022/06/10 06:07:50;;;;;;;2.17;0.80;;;;;;;18.03;100.00;100799.63;4990563;28;20050;-78
2022/06/10 06:10:20;;;;;;;1.58;0.90;;;;;;;18.03;100.00;100796.13;4990794;28;20109;-80
2022/06/10 06:12:49;;;;;;;1.70;0.65;;;;;;;18.01;100.00;100796.16;4981189;28;20050;-79
2022/06/10 06:15:19;;;;;;;2.75;1.00;;;;;;;17.99;100.00;100792.66;4988829;28;20054;-79
2022/06/10 06:17:51;;;;;;;2.10;0.90;;;;;;;17.97;100.00;100802.25;4978860;28;20090;-80
2022/06/10 06:20:21;;;;;;;1.52;0.63;;;;;;;17.92;100.00;100801.38;4981778;28;20086;-78
2022/06/10 06:22:50;;;;;;;1.10;0.52;;;;;;;17.87;100.00;100797.91;4978342;28;20468;-79
2022/06/10 06:25:20;;;;;;;1.08;0.60;;;;;;;17.82;100.00;100807.47;4976226;28;20106;-79
2022/06/10 06:27:50;;;;;;;0.88;0.40;;;;;;;17.77;100.00;100810.94;4985691;28;20046;-79
2022/06/10 06:30:26;;;;;;;1.83;0.60;;;;;;;17.73;100.00;100817.03;4986300;28;20054;-79
2022/06/10 06:32:55;;;;;;;0.80;0.45;;;;;;;17.73;100.00;100814.44;4981087;28;20043;-79
2022/06/10 06:35:23;;;;;;;1.25;0.60;;;;;;;17.73;100.00;100809.19;4983302;28;20054;-78
2022/06/10 06:37:52;;;;;;;1.25;0.50;;;;;;;17.70;100.00;100809.16;4983185;28;20055;-76
2022/06/10 06:40:21;;;;;;;1.23;0.30;;;;;;;17.68;100.00;100796.97;4985727;28;20050;-76
2022/06/10 06:42:51;;;;;;;0.93;0.40;;;;;;;17.65;100.00;100792.59;4991092;28;20050;-77
2022/06/10 06:45:22;;;;;;;1.02;0.38;;;;;;;17.69;100.00;100791.75;4985856;28;20504;-77
2022/06/10 06:47:51;;;;;;;1.55;0.30;;;;;;;17.69;100.00;100786.50;4988800;28;20656;-79
2022/06/10 06:50:23;;;;;;;3.50;0.47;;;;;;;17.69;100.00;100791.75;4987588;28;20420;-79
2022/06/10 06:52:52;;;;;;;1.10;0.50;;;;;;;17.72;100.00;100793.47;4986161;28;20053;-79
2022/06/10 06:55:20;;;;;;;0.95;0.30;;;;;;;17.76;100.00;100795.25;4991435;28;20050;-79
2022/06/10 06:57:49;;;;;;;1.15;0.47;;;;;;;17.77;100.00;100787.41;4992240;28;20038;-80
2022/06/10 07:00:21;;;;;;;0.73;0.30;;;;;;;17.79;100.00;100790.84;4988372;28;20066;-79
2022/06/10 07:02:49;;;;;;;0.57;0.40;;;;;;;17.79;100.00;100772.53;4994060;28;20552;-79
2022/06/10 07:05:18;;;;;;;1.00;0.30;;;;;;;17.74;100.00;100773.41;4983281;28;20114;-79
2022/06/10 07:07:46;;;;;;;0.50;0.30;;;;;;;17.68;100.00;100763.81;4984606;28;20050;-79
2022/06/10 07:10:17;;;;;;;2.55;0.60;;;;;;;17.65;100.00;100766.44;4991150;28;20074;-79
2022/06/10 07:12:46;;;;;;;0.57;0.38;;;;;;;17.64;100.00;100780.41;4985490;28;20050;-79
2022/06/10 07:15:15;;;;;;;2.65;0.60;;;;;;;17.67;100.00;100772.53;4986171;28;20050;-79
2022/06/10 07:17:45;;;;;;;1.00;0.40;;;;;;;17.70;100.00;100758.59;4985895;28;20137;-79
2022/06/10 07:20:23;;;;;;;2.10;0.50;;;;;;;17.66;100.00;100747.25;4985110;28;20050;-79
2022/06/10 07:22:51;;;;;;;0.70;0.40;;;;;;;17.62;100.00;100748.13;4989080;28;20043;-79
2022/06/10 07:25:20;;;;;;;1.33;0.50;;;;;;;17.61;100.00;100754.22;4996553;28;20057;-79
2022/06/10 07:27:49;;;;;;;2.80;0.70;;;;;;;17.63;100.00;100762.06;4987418;28;20051;-80
2022/06/10 07:30:19;;;;;;;0.70;0.57;;;;;;;17.65;100.00;100781.28;4983945;28;20081;-79
2022/06/10 07:32:49;;;;;;;1.58;0.50;;;;;;;17.67;100.00;100785.63;4984523;28;20054;-80
2022/06/10 07:35:18;;;;;;;2.28;0.38;;;;;;;17.69;100.00;100778.66;4984533;28;20104;-80
2022/06/10 07:37:47;;;;;;;1.50;0.60;;;;;;;17.71;100.00;100782.16;4985868;28;20106;-79
2022/06/10 07:43:00;;;;;;;2.08;0.40;;;;;;;17.74;100.00;100800.47;4983697;28;20037;-78
2022/06/10 07:45:28;;;;;;;1.52;0.20;;;;;;;17.75;100.00;100788.25;4981289;28;20143;-77
2022/06/10 07:47:59;;;;;;;1.05;0.30;;;;;;;17.74;100.00;100784.75;4985798;28;20043;-78
2022/06/10 07:50:27;;;;;;;0.73;0.30;;;;;;;17.74;100.00;100774.28;4992766;28;20060;-78
2022/06/10 07:52:56;;;;;;;1.55;0.32;;;;;;;17.71;100.00;100768.19;4976983;28;20528;-78
2022/06/10 07:55:25;;;;;;;0.55;0.47;;;;;;;17.71;100.00;100762.97;4975398;28;20177;-78
2022/06/10 07:57:54;;;;;;;1.67;0.32;;;;;;;17.72;100.00;100765.56;4987391;28;20127;-78
2022/06/10 08:00:25;;;;;;;0.55;0.30;;;;;;;17.73;100.00;100769.94;4981496;28;20054;-78
2022/06/10 08:02:53;;;;;;;2.15;0.40;;;;;;;17.75;100.00;100773.44;4989948;28;20054;-78
2022/06/10 08:05:23;;;;;;;0.88;0.47;;;;;;;17.75;100.00;100772.53;4987209;28;20061;-78
2022/06/10 08:07:52;;;;;;;1.98;0.38;;;;;;;17.74;100.00;100770.81;4979022;28;20043;-78
2022/06/10 08:10:25;;;;;;;0.70;0.40;;;;;;;17.73;100.00;100764.72;4991061;28;20050;-79
2022/06/10 08:12:54;;;;;;;0.38;0.30;;;;;;;17.74;100.00;100776.03;4991065;28;20046;-79
2022/06/10 08:15:24;;;;;;;0.35;0.20;;;;;;;17.77;100.00;100776.94;4988610;28;20058;-78
2022/06/10 08:17:54;;;;;;;0.77;0.50;;;;;;;17.78;100.00;100770.81;4981006;28;20050;-79
2022/06/10 08:22:32;;;;;;;1.45;0.30;;;;;;;17.80;100.00;100763.84;4988358;28;20050;-80
2022/06/10 08:23:13;;;;;;;1.15;0.47;;;;;;;17.84;100.00;100766.47;4990161;28;20090;-80
2022/06/10 08:25:42;;;;;;;0.82;0.22;;;;;;;17.86;100.00;100773.44;4987011;28;20059;-79
2022/06/10 08:28:12;;;;;;;1.33;0.22;;;;;;;17.89;100.00;100769.94;4987284;28;20050;-78
2022/06/10 08:30:40;;;;;;;1.45;0.30;;;;;;;17.88;100.00;100771.69;4988281;28;20050;-79
2022/06/10 08:33:09;;;;;;;1.38;0.40;;;;;;;17.86;100.00;100773.44;4981380;28;20109;-79
2022/06/10 08:35:40;;;;;;;0.20;0.17;;;;;;;17.87;100.00;100761.25;4987025;28;20493;-78
2022/06/10 08:38:12;;;;;;;0.73;0.10;;;;;;;17.86;100.00;100762.09;4983081;28;20047;-78
2022/06/10 08:40:46;;;;;;;;;;;;;;;17.85;100.00;100760.38;4978351;28;20057;-79
2022/06/10 08:43:35;;;;;;;0.57;0.20;;;;;;;17.84;100.00;100772.56;4996362;28;20248;-78
2022/06/10 08:46:14;;;;;;;3.28;0.50;;;;;;;17.84;100.00;100756.88;4985559;28;20611;-78
2022/06/10 08:48:58;;;;;;;0.98;0.30;;;;;;;17.82;100.00;100770.81;4983576;28;20050;-79
2022/06/10 08:51:44;;;;;;;0.32;0.20;;;;;;;17.82;100.00;100762.97;4982291;28;20148;-78
2022/06/10 08:54:20;;;;;;;0.50;0.30;;;;;;;17.82;100.00;100773.44;4991741;28;20517;-78
2022/06/10 08:56:52;;;;;;;2.17;0.30;;;;;;;17.83;100.00;100764.75;4990562;28;20090;-79
2022/06/10 08:59:27;;;;;;;0.38;0.25;;;;;;;17.80;100.00;100771.69;4992655;28;20551;-79
2022/06/10 09:02:06;;;;;;;0.40;0.20;;;;;;;17.76;100.00;100788.25;4993169;28;20058;-77
2022/06/10 09:04:52;;;;;;;0.60;0.20;;;;;;;17.74;100.00;100790.00;4992552;28;20043;-77
2022/06/10 09:07:28;;;;;;;0.40;0.22;;;;;;;17.73;100.00;100785.63;4995988;28;20061;-77
2022/06/10 09:09:59;;;;;;;0.22;0.20;;;;;;;17.73;100.00;100796.13;4988149;28;20042;-77
2022/06/10 09:12:46;;;;;;;0.40;0.17;;;;;;;17.71;100.00;100774.28;4991704;28;20053;-77
2022/06/10 09:15:16;;;;;;;0.45;0.20;;;;;;;17.62;100.00;100782.13;4992431;28;20037;-76
2022/06/10 09:17:52;;;;;;;0.50;0.20;;;;;;;17.56;100.00;100767.28;4995961;28;20440;-78
2022/06/10 09:20:27;;;;;;;2.22;0.20;;;;;;;17.56;100.00;100779.50;4991539;28;20101;-78
2022/06/10 09:23:02;;;;;;;0.63;0.30;;;;;;;17.57;100.00;100794.34;4988963;28;20042;-76
2022/06/10 09:25:35;;;;;;;1.30;0.20;;;;;;;17.56;100.00;100777.75;4987615;28;20113;-78
2022/06/10 09:28:04;;;;;;;1.90;0.20;;;;;;;17.55;100.00;100783.00;4992927;28;20117;-77
2022/06/10 09:30:43;;;;;;;0.20;0.15;;;;;;;17.54;100.00;100786.47;4994974;28;20567;-77
2022/06/10 09:33:16;;;;;;;1.25;0.30;;;;;;;17.52;100.00;100796.06;4985297;28;20057;-78
2022/06/10 09:35:53;;;;;;;0.15;0.15;;;;;;;17.50;100.00;100797.81;4990097;28;20052;-77
2022/06/10 09:38:30;;;;;;;0.65;0.25;;;;;;;17.48;100.00;100800.44;4991600;28;20043;-80
2022/06/10 09:41:08;;;;;;;0.55;0.20;;;;;;;17.44;100.00;100787.34;4991475;28;20067;-79
2022/06/10 09:43:51;;;;;;;1.75;0.30;;;;;;;17.48;100.00;100799.56;4991835;28;20058;-78
2022/06/10 09:46:41;;;;;;;1.25;0.40;;;;;;;17.49;100.00;100811.75;4990213;28;20057;-80
2022/06/10 09:49:36;;;;;;;2.97;0.40;;;;;;;17.50;100.00;100808.25;4993157;28;20057;-80
2022/06/10 09:52:15;;;;;;;0.40;0.30;;;;;;;17.49;100.00;100806.53;4993875;28;20058;-79
2022/06/10 09:55:08;;;;;;;0.30;0.20;;;;;;;17.53;100.00;100810.91;4998122;28;20049;-80
2022/06/10 09:58:05;;;;;;;0.30;0.20;;;;;;;17.49;100.00;100812.63;4989312;28;20118;-79
2022/06/10 10:00:38;;;;;;;0.68;0.22;;;;;;;17.49;100.00;100817.00;4976939;28;20400;-79
2022/06/10 10:03:28;;;;;;;0.10;0.10;;;;;;;17.50;100.00;100823.97;4988189;28;20053;-78
2022/06/10 10:06:18;;;;;;;0.47;0.30;;;;;;;17.49;100.00;100819.63;4984186;28;20042;-79
2022/06/10 10:08:57;;;;;;;0.40;0.30;;;;;;;17.40;100.00;100812.63;4983802;28;20504;-78
2022/06/10 10:11:37;;;;;;;0.17;0.10;;;;;;;17.43;100.00;100816.97;4986315;28;20424;-80
2022/06/10 10:14:13;;;;;;;0.55;0.20;;;;;;;17.42;100.00;100810.00;4988758;28;20125;-79
2022/06/10 10:16:55;;;;;;;1.10;0.40;;;;;;;17.40;100.00;100816.97;4983197;28;20137;-80
2022/06/10 10:19:52;;;;;;;2.75;0.40;;;;;;;17.39;100.00;100821.34;4990276;28;20536;-80
2022/06/10 10:22:45;;;;;;;0.73;0.40;;;;;;;17.42;100.00;100820.47;4985654;28;20047;-79
2022/06/10 10:25:18;;;;;;;3.35;1.80;;;;;;;17.44;100.00;100816.13;4971474;28;20050;-79
2022/06/10 10:27:48;;;;;;;;;;;;;;;17.47;100.00;100834.44;4983389;28;20050;-79
2022/06/10 10:30:21;;;;;;;1.15;0.50;;;;;;;17.48;100.00;100828.34;4991319;28;19925;-80
2022/06/10 10:32:55;;;;;;;1.08;0.60;;;;;;;17.46;100.00;100828.34;4991246;28;20133;-78
2022/06/10 10:35:26;;;;;;;0.65;0.43;;;;;;;17.44;100.00;100834.44;4998206;28;20489;-79
2022/06/10 10:37:58;;;;;;;0.73;0.45;;;;;;;17.45;100.00;100826.56;4991178;28;20132;-79
2022/06/10 10:40:32;;;;;;;;;;;;;;;17.48;100.00;100828.34;4991750;28;20058;-79
2022/06/10 10:43:07;;;;;;;1.73;0.40;;;;;;;17.50;100.00;100834.44;4989282;28;19973;-79
2022/06/10 10:45:39;;;;;;;0.82;0.40;;;;;;;17.50;100.00;100821.34;4984078;28;20045;-78
2022/06/10 10:48:18;;;;;;;0.82;0.30;;;;;;;17.51;100.00;100820.50;4995738;28;20105;-78
2022/06/10 10:50:56;;;;;;;1.42;0.20;;;;;;;17.53;100.00;100818.75;4991736;28;20348;-78
2022/06/10 10:53:28;;;;;;;2.00;0.40;;;;;;;17.54;100.00;100817.88;5001006;28;20046;-78
2022/06/10 10:55:57;;;;;;;;;;;;;;;17.56;100.00;100829.22;4989105;28;20054;-78
2022/06/10 10:58:31;;;;;;;2.15;0.30;;;;;;;17.58;100.00;100824.88;4986537;28;20371;-78
2022/06/10 11:01:03;;;;;;;0.70;0.50;;;;;;;17.60;100.00;100830.97;4989823;28;20049;-78
2022/06/10 11:03:32;;;;;;;;;;;;;;;17.56;100.00;100823.97;4989878;28;20050;-77
2022/06/10 11:06:03;;;;;;;0.50;0.35;;;;;;;17.50;100.00;100831.81;4990680;28;19976;-78
2022/06/10 11:08:34;;;;;;;1.33;0.60;;;;;;;17.46;100.00;100824.84;4992440;28;20579;-79
2022/06/10 11:11:22;;;;;;;2.63;0.50;;;;;;;17.45;100.00;100825.69;4984630;28;20076;-77
2022/06/10 11:13:56;;;;;;;2.63;0.50;;;;;;;17.45;100.00;100836.16;4990655;28;20737;-78
2022/06/10 11:16:44;;;;;;;1.75;0.38;;;;;;;17.49;100.00;100843.16;4989867;28;20140;-78
2022/06/10 11:19:41;;;;;;;0.45;0.30;;;;;;;17.51;100.00;100823.09;4989298;28;20109;-78
2022/06/10 11:22:28;;;;;;;1.55;0.40;;;;;;;17.53;100.00;100821.38;4989799;28;20067;-78
2022/06/10 11:25:15;;;;;;;2.33;0.40;;;;;;;17.54;100.00;100825.72;4987336;28;20050;-78
2022/06/10 11:28:00;;;;;;;2.80;0.35;;;;;;;17.54;100.00;100837.06;4984272;28;20555;-79
2022/06/10 11:30:42;;;;;;;0.40;0.20;;;;;;;17.54;100.00;100846.66;4991224;28;20054;-79
2022/06/10 11:33:27;;;;;;;0.35;0.25;;;;;;;17.52;100.00;100848.38;4986269;28;20085;-79
2022/06/10 11:36:05;;;;;;;0.20;0.20;;;;;;;17.52;100.00;100848.38;4980722;28;20055;-79
2022/06/10 11:38:36;;;;;;;0.45;0.15;;;;;;;17.53;100.00;100839.69;4976632;28;20046;-79
2022/06/10 11:41:22;;;;;;;1.15;0.30;;;;;;;17.52;100.00;100844.06;4988207;28;20045;-80
2022/06/10 11:43:56;;;;;;;0.30;0.20;;;;;;;17.45;100.00;100838.78;4985104;28;20055;-80
2022/06/10 11:46:38;;;;;;;;;;;;;;;17.52;100.00;100827.47;4983450;28;20593;-79
2022/06/10 11:49:18;;;;;;;0.65;0.40;;;;;;;17.50;100.00;100834.44;4984730;28;20074;-79
2022/06/10 11:51:59;;;;;;;1.33;0.40;;;;;;;17.50;100.00;100837.03;4984847;28;20050;-79
2022/06/10 11:54:41;;;;;;;1.17;0.25;;;;;;;17.51;100.00;100833.56;4991455;28;20594;-79
2022/06/10 12:00:11;;;;;;;1.02;0.30;;;;;;;17.45;100.00;100828.31;4981380;28;20120;-80
2022/06/10 12:02:45;;;;;;;0.28;0.20;;;;;;;17.42;100.00;100836.16;5001092;28;20503;-79
2022/06/10 12:05:23;;;;;;;0.40;0.20;;;;;;;17.41;100.00;100850.09;4993154;28;20141;-80